Time;durP1;ratioP1;P1;durP2;ratioP2;P2;SDS_P1;SDS_P2;PMS_P1;PMS_P2;Temp;Humidity;BMP_temperature;BMP_pressure;BME280_temperature;BME280_humidity;BME280_pressure;Samples;Min_cycle;Max_cycle;Signal;HPM_P1;HPM_P2
2021/05/08 00:02:04;;;;;;;3.80;3.37;;;2.20;99.90;;;;;;5036117;28;20531;-90
2021/05/08 00:04:30;;;;;;;5.60;3.90;;;;;;;;;;5034745;28;20483;-90
2021/05/08 00:06:58;;;;;;;4.40;3.57;;;;;;;;;;5033969;28;20550;-90
2021/05/08 00:09:25;;;;;;;4.73;3.67;;;;;;;;;;5034296;28;20456;-89
2021/05/08 00:11:53;;;;;;;4.70;3.90;;;;;;;;;;5033981;28;20487;-91
2021/05/08 00:14:21;;;;;;;5.07;4.57;;;2.20;99.90;;;;;;5032833;28;20452;-90
2021/05/08 00:16:47;;;;;;;4.50;4.00;;;;;;;;;;5031660;28;20451;-89
2021/05/08 00:19:14;;;;;;;4.47;3.80;;;;;;;;;;5034012;28;20455;-89
2021/05/08 00:21:40;;;;;;;5.47;4.30;;;;;;;;;;5033894;28;20451;-89
2021/05/08 00:24:08;;;;;;;5.40;4.40;;;2.10;99.90;;;;;;5034027;28;20447;-90
2021/05/08 00:26:34;;;;;;;4.70;4.10;;;;;;;;;;5033851;28;20474;-90
2021/05/08 00:29:01;;;;;;;4.47;3.57;;;;;;;;;;5032637;28;20444;-91
2021/05/08 00:31:29;;;;;;;4.80;3.80;;;2.10;99.90;;;;;;5033651;28;20505;-90
2021/05/08 00:33:55;;;;;;;4.50;3.90;;;;;;;;;;5033650;28;20998;-90
2021/05/08 00:36:22;;;;;;;6.17;4.90;;;2.00;99.90;;;;;;5033401;28;20938;-89
2021/05/08 00:38:49;;;;;;;4.57;4.10;;;;;;;;;;5034165;28;20962;-90
2021/05/08 00:41:16;;;;;;;5.90;4.30;;;;;;;;;;5033870;28;20451;-90
2021/05/08 00:43:42;;;;;;;4.93;4.00;;;;;;;;;;5032279;28;20827;-89
2021/05/08 00:46:09;;;;;;;8.23;4.43;;;;;;;;;;5033702;28;20462;-89
2021/05/08 00:48:36;;;;;;;6.67;4.90;;;1.70;99.90;;;;;;5034515;28;20860;-88
2021/05/08 00:51:03;;;;;;;6.43;3.80;;;;;;;;;;5033636;28;20459;-91
2021/05/08 00:53:29;;;;;;;4.70;4.10;;;2.00;99.90;;;;;;5031467;28;20537;-90
2021/05/08 00:55:56;;;;;;;5.43;4.27;;;;;;;;;;5033587;28;20456;-91
2021/05/08 00:58:23;;;;;;;5.20;4.13;;;;;;;;;;5032359;28;20462;-90
2021/05/08 01:00:55;;;;;;;5.20;4.70;;;1.80;99.90;;;;;;5033475;28;20455;-90
2021/05/08 01:03:22;;;;;;;4.60;3.97;;;1.90;99.90;;;;;;5032839;28;20954;-90
2021/05/08 01:05:49;;;;;;;5.00;4.00;;;1.90;99.90;;;;;;5033114;28;20491;-90
2021/05/08 01:08:16;;;;;;;4.33;3.93;;;;;;;;;;5033404;28;20447;-90
2021/05/08 01:10:43;;;;;;;5.63;4.13;;;;;;;;;;5033532;28;20469;-90
2021/05/08 01:13:09;;;;;;;6.40;5.27;;;;;;;;;;5032175;28;21029;-90
2021/05/08 01:15:36;;;;;;;4.83;4.13;;;;;;;;;;5033326;28;20450;-90
2021/05/08 01:18:03;;;;;;;5.80;4.37;;;;;;;;;;5033725;28;20806;-90
2021/05/08 01:20:30;;;;;;;5.13;4.50;;;;;;;;;;5033623;28;20463;-89
2021/05/08 01:22:57;;;;;;;5.10;4.23;;;2.20;99.90;;;;;;5033376;28;20451;-89
2021/05/08 01:25:26;;;;;;;5.70;3.80;;;1.60;99.90;;;;;;5033323;28;20459;-90
2021/05/08 01:27:55;;;;;;;6.23;4.27;;;2.10;99.90;;;;;;5032240;28;20447;-88
2021/05/08 01:30:23;;;;;;;7.70;4.53;;;1.60;99.90;;;;;;5033083;28;20454;-92
2021/05/08 01:32:50;;;;;;;7.20;5.00;;;;;;;;;;5033509;28;20502;-90
2021/05/08 01:35:17;;;;;;;5.60;4.43;;;;;;;;;;5033405;28;20448;-90
2021/05/08 01:37:44;;;;;;;5.30;4.10;;;2.10;99.90;;;;;;5038303;28;20818;-90
2021/05/08 01:40:13;;;;;;;4.83;4.20;;;1.60;99.90;;;;;;5038343;28;20934;-89
2021/05/08 01:42:41;;;;;;;4.87;4.23;;;1.50;99.90;;;;;;5035962;28;20451;-92
2021/05/08 01:45:11;;;;;;;5.00;4.40;;;1.30;99.90;;;;;;5036886;28;20450;-89
2021/05/08 01:47:39;;;;;;;5.47;4.23;;;1.50;99.90;;;;;;5036963;28;20474;-91
2021/05/08 01:50:07;;;;;;;6.47;4.67;;;1.70;99.90;;;;;;5039026;28;20451;-89
2021/05/08 01:52:34;;;;;;;5.20;4.33;;;;;;;;;;5039083;28;20483;-90
2021/05/08 01:55:01;;;;;;;5.83;4.23;;;1.60;99.90;;;;;;5040038;28;20490;-90
2021/05/08 01:57:28;;;;;;;5.70;4.30;;;1.40;99.90;;;;;;5037679;28;20837;-90
2021/05/08 01:59:55;;;;;;;6.70;4.33;;;;;;;;;;5038396;28;20439;-93
2021/05/08 02:02:22;;;;;;;4.37;3.97;;;;;;;;;;5037198;28;20455;-90
2021/05/08 02:04:48;;;;;;;7.57;4.83;;;;;;;;;;5036390;28;20501;-89
2021/05/08 02:07:15;;;;;;;5.97;4.33;;;;;;;;;;5036651;28;20553;-91
2021/05/08 02:09:41;;;;;;;5.60;4.97;;;;;;;;;;5036537;28;20455;-90
2021/05/08 02:12:08;;;;;;;5.97;4.40;;;;;;;;;;5036012;28;20478;-89
2021/05/08 02:14:35;;;;;;;5.27;4.63;;;1.40;99.90;;;;;;5036437;28;20518;-90
2021/05/08 02:17:02;;;;;;;5.93;4.80;;;;;;;;;;5036023;28;20454;-91
2021/05/08 02:19:28;;;;;;;6.03;4.80;;;1.30;99.90;;;;;;5036214;28;20786;-90
2021/05/08 02:21:57;;;;;;;7.90;5.40;;;1.50;99.90;;;;;;5036181;28;20455;-90
2021/05/08 02:24:23;;;;;;;6.43;5.53;;;;;;;;;;5036078;28;20807;-90
2021/05/08 02:26:50;;;;;;;4.80;4.30;;;1.50;99.90;;;;;;5035845;28;20466;-90
2021/05/08 02:29:16;;;;;;;7.03;5.07;;;;;;;;;;5035792;28;20466;-90
2021/05/08 02:31:43;;;;;;;5.83;4.93;;;1.80;99.90;;;;;;5035855;28;20485;-91
2021/05/08 02:34:10;;;;;;;9.60;5.23;;;;;;;;;;5034121;28;20491;-89
2021/05/08 02:36:37;;;;;;;7.93;5.43;;;;;;;;;;5035985;28;20447;-91
2021/05/08 02:39:04;;;;;;;7.27;5.60;;;1.30;99.90;;;;;;5035763;28;20448;-90
2021/05/08 02:41:31;;;;;;;7.73;5.40;;;;;;;;;;5035673;28;20443;-90
2021/05/08 02:43:57;;;;;;;6.43;4.60;;;;;;;;;;5034517;28;20448;-90
2021/05/08 02:46:24;;;;;;;5.20;4.60;;;;;;;;;;5035904;28;20451;-90
2021/05/08 02:48:51;;;;;;;6.13;4.77;;;1.90;99.90;;;;;;5034323;28;21024;-90
2021/05/08 02:51:17;;;;;;;6.10;5.27;;;1.60;99.90;;;;;;5035622;28;20451;-90
2021/05/08 02:53:44;;;;;;;5.33;4.67;;;;;;;;;;5033832;28;20494;-90
2021/05/08 02:56:10;;;;;;;5.67;4.97;;;;;;;;;;5035441;28;20443;-89
2021/05/08 02:58:37;;;;;;;11.33;4.63;;;;;;;;;;5034217;28;20440;-90
2021/05/08 03:01:03;;;;;;;5.23;4.57;;;;;;;;;;5035525;28;20455;-91
2021/05/08 03:03:30;;;;;;;5.10;4.20;;;1.30;99.90;;;;;;5035516;28;20478;-90
2021/05/08 03:05:57;;;;;;;6.27;5.10;;;1.40;99.90;;;;;;5035359;28;20479;-91
2021/05/08 03:08:23;;;;;;;5.20;4.67;;;;;;;;;;5035309;28;20461;-89
2021/05/08 03:10:50;;;;;;;5.77;4.80;;;;;;;;;;5035401;28;20454;-90
2021/05/08 03:13:17;;;;;;;6.27;4.57;;;;;;;;;;5033423;28;20483;-91
2021/05/08 03:15:43;;;;;;;6.53;4.97;;;1.00;99.90;;;;;;5035283;28;20451;-89
2021/05/08 03:18:09;;;;;;;6.30;5.00;;;1.00;99.90;;;;;;5035234;28;21029;-89
2021/05/08 03:20:36;;;;;;;4.63;4.23;;;;;;;;;;5035176;28;20444;-90
2021/05/08 03:23:03;;;;;;;5.40;4.50;;;0.90;99.90;;;;;;5035020;28;20474;-90
2021/05/08 03:25:30;;;;;;;6.33;4.60;;;;;;;;;;5034676;28;20889;-89
2021/05/08 03:27:56;;;;;;;7.83;5.50;;;;;;;;;;5034133;28;20451;-92
2021/05/08 03:30:23;;;;;;;9.23;4.60;;;0.90;99.90;;;;;;5035172;28;20943;-89
2021/05/08 03:32:49;;;;;;;6.23;4.70;;;;;;;;;;5015970;28;20490;-89
2021/05/08 03:35:16;;;;;;;5.47;4.30;;;;;;;;;;5034524;28;20702;-89
2021/05/08 03:37:43;;;;;;;6.23;4.40;;;;;;;;;;5034752;28;20452;-89
2021/05/08 03:40:11;;;;;;;6.00;5.10;;;1.10;99.90;;;;;;5035896;28;20463;-90
2021/05/08 03:42:38;;;;;;;9.00;4.40;;;;;;;;;;5033154;28;20463;-90
2021/05/08 03:45:05;;;;;;;5.70;4.37;;;1.10;99.90;;;;;;5034557;28;20456;-89
2021/05/08 03:47:32;;;;;;;8.23;3.83;;;;;;;;;;5035506;28;20459;-90
2021/05/08 03:49:58;;;;;;;5.13;4.10;;;;;;;;;;5034491;28;20580;-89
2021/05/08 03:52:25;;;;;;;6.30;4.67;;;;;;;;;;5034144;28;20452;-90
2021/05/08 03:54:52;;;;;;;7.33;4.40;;;;;;;;;;5034510;28;20577;-91
2021/05/08 03:57:19;;;;;;;4.63;4.20;;;0.80;99.90;;;;;;5033149;28;20447;-89
2021/05/08 03:59:45;;;;;;;4.83;4.40;;;0.70;99.90;;;;;;5033824;28;20454;-89
2021/05/08 04:02:12;;;;;;;5.90;4.20;;;;;;;;;;5034340;28;20444;-90
2021/05/08 04:04:38;;;;;;;5.70;4.80;;;;;;;;;;5033552;28;20510;-88
2021/05/08 04:07:05;;;;;;;4.93;4.43;;;;;;;;;;5034207;28;20447;-88
2021/05/08 04:09:31;;;;;;;6.40;4.73;;;;;;;;;;5034038;28;21029;-90
2021/05/08 04:11:58;;;;;;;9.87;4.77;;;;;;;;;;5034106;28;20501;-91
2021/05/08 04:14:25;;;;;;;7.30;5.80;;;1.10;99.90;;;;;;5032873;28;20923;-89
2021/05/08 04:16:52;;;;;;;6.73;4.00;;;;;;;;;;5034939;28;20448;-89
2021/05/08 04:19:18;;;;;;;8.43;4.50;;;;;;;;;;5033631;28;20444;-89
2021/05/08 04:21:45;;;;;;;10.23;4.87;;;;;;;;;;5033934;28;20451;-89
2021/05/08 04:24:12;;;;;;;8.23;4.83;;;;;;;;;;5033790;28;20451;-90
2021/05/08 04:26:38;;;;;;;5.47;4.20;;;;;;;;;;5033780;28;20455;-90
2021/05/08 04:29:05;;;;;;;6.87;4.33;;;;;;;;;;5032446;28;20451;-90
2021/05/08 04:31:33;;;;;;;7.47;4.50;;;1.70;99.90;;;;;;5033742;28;20447;-91
2021/05/08 04:34:00;;;;;;;8.40;4.20;;;;;;;;;;5033609;28;20557;-90
2021/05/08 04:36:26;;;;;;;4.80;4.00;;;;;;;;;;5033590;28;20505;-91
2021/05/08 04:38:53;;;;;;;5.60;4.60;;;;;;;;;;5033799;28;20451;-89
2021/05/08 04:41:20;;;;;;;8.47;4.40;;;;;;;;;;5033715;28;20517;-90
2021/05/08 04:43:46;;;;;;;6.43;4.10;;;;;;;;;;5034026;28;20458;-92
2021/05/08 04:46:13;;;;;;;8.70;4.27;;;;;;;;;;5033295;28;20505;-90
2021/05/08 04:48:40;;;;;;;8.03;5.73;;;2.60;99.90;;;;;;5033358;28;20479;-89
2021/05/08 04:51:06;;;;;;;13.53;8.83;;;2.80;99.90;;;;;;5033198;28;20816;-89
2021/05/08 04:53:33;;;;;;;12.03;6.50;;;2.60;99.90;;;;;;5033277;28;20494;-89
2021/05/08 04:56:00;;;;;;;9.80;6.20;;;2.70;99.90;;;;;;5033080;28;20927;-89
2021/05/08 04:58:26;;;;;;;8.90;4.60;;;;;;;;;;5032103;28;20451;-90
2021/05/08 05:00:53;;;;;;;5.30;4.17;;;3.00;99.90;;;;;;5030283;28;20462;-88
2021/05/08 05:03:19;;;;;;;5.63;4.13;;;3.30;99.90;;;;;;5032799;28;20459;-89
2021/05/08 05:05:46;;;;;;;7.80;4.67;;;3.40;99.90;;;;;;5032754;28;20483;-91
2021/05/08 05:08:18;;;;;;;6.10;4.80;;;3.50;99.90;;;;;;5033023;28;20458;-91
2021/05/08 05:10:49;;;;;;;7.10;4.93;;;3.50;99.90;;;;;;5033745;28;20477;-90
2021/05/08 05:13:15;;;;;;;15.53;4.70;;;;;;;;;;5036212;28;20541;-89
2021/05/08 05:15:42;;;;;;;9.00;4.70;;;;;;;;;;5037086;28;20625;-90
2021/05/08 05:18:08;;;;;;;6.93;4.53;;;4.50;99.90;;;;;;5038519;28;20459;-90
2021/05/08 05:20:35;;;;;;;4.40;3.60;;;;;;;;;;5034470;28;20505;-90
2021/05/08 05:23:02;;;;;;;5.57;4.10;;;4.30;99.90;;;;;;5037235;28;20448;-89
2021/05/08 05:25:29;;;;;;;6.70;4.90;;;;;;;;;;5037141;28;20459;-89
2021/05/08 05:27:55;;;;;;;6.30;4.30;;;;;;;;;;5035649;28;20445;-90
2021/05/08 05:30:22;;;;;;;6.17;4.27;;;5.10;99.90;;;;;;5036987;28;20459;-89
2021/05/08 05:32:49;;;;;;;3.80;3.40;;;;;;;;;;5036845;28;20578;-91
2021/05/08 05:35:16;;;;;;;4.30;3.80;;;;;;;;;;5036956;28;20455;-91
2021/05/08 05:37:42;;;;;;;3.50;3.20;;;;;;;;;;5037009;28;20941;-90
2021/05/08 05:40:11;;;;;;;5.37;3.17;;;6.90;99.90;;;;;;5036913;28;20458;-90
2021/05/08 05:42:38;;;;;;;4.27;3.00;;;7.20;99.90;;;;;;5035205;28;20456;-89
2021/05/08 05:45:06;;;;;;;4.07;2.43;;;7.90;99.90;;;;;;5037028;28;20451;-89
2021/05/08 05:47:33;;;;;;;8.30;3.03;;;;;;;;;;5036753;28;20459;-91
2021/05/08 05:49:59;;;;;;;4.00;2.70;;;8.30;99.90;;;;;;5036757;28;20451;-92
2021/05/08 05:52:27;;;;;;;6.63;3.00;;;8.60;99.90;;;;;;5036639;28;20447;-89
2021/05/08 05:54:54;;;;;;;6.40;3.20;;;;;;;;;;5036532;28;20466;-90
2021/05/08 05:57:21;;;;;;;3.63;2.60;;;9.00;99.90;;;;;;5036291;28;20537;-90
2021/05/08 05:59:47;;;;;;;3.10;2.53;;;9.40;99.90;;;;;;5036209;28;20798;-92
2021/05/08 06:02:14;;;;;;;3.87;2.80;;;;;;;;;;5036596;28;20522;-90
2021/05/08 06:04:40;;;;;;;3.10;2.50;;;9.10;99.90;;;;;;5036219;28;20875;-91
2021/05/08 06:07:07;;;;;;;5.57;3.20;;;;;;;;;;5036151;28;20935;-92
2021/05/08 06:09:33;;;;;;;2.30;2.10;;;;;;;;;;5036464;28;20473;-90
2021/05/08 06:12:00;;;;;;;2.60;1.93;;;;;;;;;;5036317;28;20456;-91
2021/05/08 06:14:28;;;;;;;3.23;2.67;;;9.30;99.90;;;;;;5035001;28;21002;-89
2021/05/08 06:16:56;;;;;;;2.70;2.20;;;;;;;;;;5036147;28;20451;-90
2021/05/08 06:19:22;;;;;;;3.60;2.80;;;;;;;;;;5036251;28;21069;-88
2021/05/08 06:21:49;;;;;;;5.47;2.47;;;;;;;;;;5036029;28;20455;-90
2021/05/08 06:24:16;;;;;;;3.93;2.60;;;;;;;;;;5036742;28;20539;-92
2021/05/08 06:26:42;;;;;;;3.17;2.43;;;9.90;99.90;;;;;;5035774;28;20451;-89
2021/05/08 06:29:08;;;;;;;4.60;2.30;;;9.30;99.90;;;;;;5034730;28;20449;-91
2021/05/08 06:31:36;;;;;;;4.70;2.87;;;9.70;99.70;;;;;;5035976;28;20451;-90
2021/05/08 06:34:02;;;;;;;4.57;2.97;;;9.40;99.90;;;;;;5035831;28;20487;-91
2021/05/08 06:36:29;;;;;;;3.37;2.57;;;;;;;;;;5035516;28;20446;-90
2021/05/08 06:38:55;;;;;;;5.67;2.90;;;9.60;99.90;;;;;;5036030;28;20443;-89
2021/05/08 06:41:21;;;;;;;3.60;2.23;;;;;;;;;;5035896;28;20452;-90
2021/05/08 06:43:48;;;;;;;2.73;2.37;;;;;;;;;;5034272;28;20443;-90
2021/05/08 06:46:14;;;;;;;3.57;2.60;;;10.90;99.90;;;;;;5035690;28;20459;-90
2021/05/08 06:48:41;;;;;;;3.93;2.87;;;11.00;99.90;;;;;;5035541;28;20470;-90
2021/05/08 06:51:08;;;;;;;2.97;2.63;;;;;;;;;;5035535;28;20453;-90
2021/05/08 06:53:35;;;;;;;2.33;2.13;;;11.50;99.90;;;;;;5035295;28;20490;-91
2021/05/08 06:56:02;;;;;;;5.90;3.40;;;;;;;;;;5035300;28;20542;-89
2021/05/08 06:58:28;;;;;;;2.43;2.23;;;;;;;;;;5034101;28;20444;-88
2021/05/08 07:00:55;;;;;;;2.93;2.33;;;12.30;99.90;;;;;;5035406;28;20455;-90
2021/05/08 07:03:21;;;;;;;2.90;2.67;;;12.40;99.90;;;;;;5034986;28;20451;-90
2021/05/08 07:05:49;;;;;;;3.37;2.67;;;13.20;99.90;;;;;;5035226;28;20490;-89
2021/05/08 07:08:15;;;;;;;7.07;3.03;;;;;;;;;;5034919;28;20455;-90
2021/05/08 07:10:45;;;;;;;3.87;2.50;;;13.80;99.80;;;;;;5034898;28;20443;-91
2021/05/08 07:13:12;;;;;;;3.80;2.57;;;13.70;99.90;;;;;;5034162;28;20483;-90
2021/05/08 07:15:39;;;;;;;4.20;2.60;;;;;;;;;;5035167;28;20447;-93
2021/05/08 07:18:07;;;;;;;3.13;2.70;;;13.40;99.00;;;;;;5035208;28;20837;-90
2021/05/08 07:20:34;;;;;;;3.73;2.40;;;13.50;98.40;;;;;;5035038;28;20447;-89
2021/05/08 07:23:03;;;;;;;3.47;2.90;;;14.20;99.90;;;;;;5034836;28;20435;-89
2021/05/08 07:25:29;;;;;;;2.77;2.53;;;13.80;99.90;;;;;;5034964;28;20443;-89
2021/05/08 07:28:08;;;;;;;4.20;2.60;;;14.20;99.90;;;;;;5033213;28;20444;-91
2021/05/08 07:30:34;;;;;;;11.97;4.17;;;14.70;99.90;;;;;;5035418;28;20451;-91
2021/05/08 07:33:01;;;;;;;3.70;1.93;;;14.20;99.90;;;;;;5034498;28;20498;-91
2021/05/08 07:35:27;;;;;;;3.50;1.80;;;14.50;99.20;;;;;;5034043;28;20467;-91
2021/05/08 07:37:53;;;;;;;2.80;2.10;;;14.30;99.90;;;;;;5034603;28;20452;-90
2021/05/08 07:40:21;;;;;;;2.80;2.10;;;14.00;96.90;;;;;;5034423;28;20444;-90
2021/05/08 07:42:47;;;;;;;3.53;2.33;;;14.30;97.20;;;;;;5033483;28;20448;-90
2021/05/08 07:45:14;;;;;;;2.20;1.83;;;13.60;99.90;;;;;;5034850;28;20455;-90
2021/05/08 07:47:40;;;;;;;2.27;2.00;;;;;;;;;;5034519;28;20455;-89
2021/05/08 07:50:08;;;;;;;3.30;2.27;;;13.70;98.00;;;;;;5034295;28;20484;-90
2021/05/08 07:52:34;;;;;;;4.13;2.10;;;13.80;99.70;;;;;;5034218;28;20501;-90
2021/05/08 07:55:01;;;;;;;2.80;1.87;;;;;;;;;;5034252;28;20491;-89
2021/05/08 07:57:28;;;;;;;3.43;2.33;;;14.00;99.90;;;;;;5033049;28;20478;-91
2021/05/08 07:59:54;;;;;;;2.50;2.00;;;14.70;99.90;;;;;;5034212;28;20474;-89
2021/05/08 08:02:21;;;;;;;7.10;2.33;;;14.10;98.90;;;;;;5032902;28;20444;-90
2021/05/08 08:04:47;;;;;;;3.63;2.07;;;;;;;;;;5034012;28;20990;-90
2021/05/08 08:07:14;;;;;;;2.20;1.97;;;14.90;97.10;;;;;;5033921;28;20455;-90
2021/05/08 08:09:42;;;;;;;2.07;1.77;;;15.50;92.90;;;;;;5034061;28;20521;-91
2021/05/08 08:12:08;;;;;;;2.77;2.10;;;15.30;84.20;;;;;;5033812;28;20474;-89
2021/05/08 08:14:36;;;;;;;2.60;1.80;;;14.30;99.90;;;;;;5032975;28;20487;-89
2021/05/08 08:17:03;;;;;;;2.33;2.07;;;;;;;;;;5033688;28;20965;-90
2021/05/08 08:19:29;;;;;;;2.30;1.30;;;13.40;99.90;;;;;;5034328;28;20447;-89
2021/05/08 08:21:56;;;;;;;3.30;2.13;;;13.50;99.90;;;;;;5031931;28;20451;-88
2021/05/08 08:24:22;;;;;;;2.53;1.70;;;13.70;97.00;;;;;;5033498;28;20479;-89
2021/05/08 08:26:49;;;;;;;2.23;1.70;;;;;;;;;;5033243;28;20456;-90
2021/05/08 08:29:16;;;;;;;1.40;1.30;;;;;;;;;;5032336;28;20466;-89
2021/05/08 08:31:45;;;;;;;5.10;2.23;;;14.00;85.80;;;;;;5033674;28;20451;-89
2021/05/08 08:34:11;;;;;;;3.20;1.50;;;15.20;98.00;;;;;;5033320;28;20522;-90
2021/05/08 08:36:38;;;;;;;2.10;1.60;;;;;;;;;;5033037;28;20502;-90
2021/05/08 08:39:05;;;;;;;1.43;1.20;;;14.30;82.60;;;;;;5033584;28;20927;-89
2021/05/08 08:41:32;;;;;;;2.00;1.27;;;14.20;95.30;;;;;;5033410;28;20462;-89
2021/05/08 08:43:58;;;;;;;5.53;1.40;;;14.50;95.00;;;;;;5032365;28;20452;-89
2021/05/08 08:46:25;;;;;;;2.23;1.50;;;;;;;;;;5033187;28;20452;-88
2021/05/08 08:48:52;;;;;;;3.20;1.40;;;15.50;96.00;;;;;;5034283;28;20846;-88
2021/05/08 08:51:19;;;;;;;1.40;1.07;;;;;;;;;;5032855;28;20451;-90
2021/05/08 08:53:49;;;;;;;2.13;1.90;;;14.60;80.80;;;;;;5034244;28;20498;-89
2021/05/08 08:56:15;;;;;;;1.23;0.97;;;14.80;93.60;;;;;;5033347;28;20447;-89
2021/05/08 08:58:44;;;;;;;2.53;1.67;;;;;;;;;;5032189;28;20444;-90
2021/05/08 09:01:10;;;;;;;2.70;1.63;;;14.50;97.60;;;;;;5033243;28;20466;-90
2021/05/08 09:03:37;;;;;;;1.87;1.67;;;15.60;97.80;;;;;;5033074;28;20458;-90
2021/05/08 09:06:05;;;;;;;1.70;1.60;;;16.20;92.60;;;;;;5033080;28;20479;-90
2021/05/08 09:08:31;;;;;;;1.83;1.60;;;15.70;94.70;;;;;;5033380;28;20447;-90
2021/05/08 09:11:19;;;;;;;1.80;1.30;;;14.50;93.60;;;;;;5033390;28;20885;-91
2021/05/08 09:13:46;;;;;;;2.80;1.70;;;14.40;93.80;;;;;;5027393;28;20566;-90
2021/05/08 09:16:13;;;;;;;2.93;1.93;;;15.00;96.40;;;;;;5033173;28;20934;-89
2021/05/08 09:18:40;;;;;;;2.60;1.50;;;14.90;96.80;;;;;;5033011;28;20454;-91
2021/05/08 09:21:08;;;;;;;2.63;1.70;;;15.60;82.20;;;;;;5033450;28;20482;-90
2021/05/08 09:23:36;;;;;;;3.10;1.87;;;15.00;90.60;;;;;;5033127;28;20494;-91
2021/05/08 09:26:05;;;;;;;1.70;1.37;;;14.90;91.00;;;;;;5034537;28;20470;-89
2021/05/08 09:28:33;;;;;;;1.50;1.40;;;15.50;92.40;;;;;;5032079;28;20546;-91
2021/05/08 09:31:00;;;;;;;1.50;1.20;;;;;;;;;;5033264;28;20487;-93
2021/05/08 09:33:28;;;;;;;2.20;1.73;;;15.50;94.80;;;;;;5033132;28;20495;-91
2021/05/08 09:36:06;;;;;;;1.50;1.40;;;15.50;95.20;;;;;;5032911;28;21025;-90
2021/05/08 09:38:36;;;;;;;1.80;1.27;;;14.30;96.00;;;;;;5033261;28;20439;-89
2021/05/08 09:41:04;;;;;;;3.60;1.63;;;14.00;96.50;;;;;;5033067;28;20958;-88
2021/05/08 09:43:31;;;;;;;1.93;1.30;;;;;;;;;;5031486;28;20443;-89
2021/05/08 09:45:58;;;;;;;2.40;1.63;;;;;;;;;;5033055;28;20466;-90
2021/05/08 09:48:27;;;;;;;2.10;1.50;;;15.20;76.10;;;;;;5032697;28;20503;-90
2021/05/08 09:50:54;;;;;;;2.60;1.30;;;16.00;95.40;;;;;;5032947;28;20459;-90
2021/05/08 09:53:30;;;;;;;1.40;1.10;;;16.10;91.10;;;;;;5032840;28;20495;-88
2021/05/08 09:55:58;;;;;;;2.67;1.67;;;16.00;90.60;;;;;;5032619;28;20451;-90
2021/05/08 09:58:26;;;;;;;1.67;1.30;;;16.00;91.20;;;;;;5034242;28;20501;-89
2021/05/08 10:00:53;;;;;;;2.27;1.33;;;15.80;72.50;;;;;;5037012;28;20493;-89
2021/05/08 10:03:21;;;;;;;2.17;1.73;;;16.80;92.10;;;;;;5036762;28;21000;-88
2021/05/08 10:06:09;;;;;;;2.77;1.50;;;16.20;98.40;;;;;;5035979;28;20975;-90
2021/05/08 10:08:36;;;;;;;2.20;1.17;;;;;;;;;;5036276;28;20930;-89
2021/05/08 10:11:04;;;;;;;1.73;1.40;;;17.90;90.60;;;;;;5036105;28;20546;-91
2021/05/08 10:13:32;;;;;;;1.30;1.20;;;17.20;97.40;;;;;;5035209;28;20843;-88
2021/05/08 10:16:00;;;;;;;1.77;1.30;;;17.20;63.90;;;;;;5036465;28;20454;-89
2021/05/08 10:18:27;;;;;;;1.10;0.90;;;17.60;85.30;;;;;;5035735;28;20594;-89
2021/05/08 10:20:54;;;;;;;1.43;1.03;;;16.60;63.00;;;;;;5035943;28;20470;-90
2021/05/08 10:23:28;;;;;;;2.20;1.70;;;15.70;65.40;;;;;;5035824;28;20537;-92
2021/05/08 10:25:55;;;;;;;1.67;1.27;;;15.60;66.10;;;;;;5035777;28;20459;-90
2021/05/08 10:28:22;;;;;;;1.30;1.20;;;17.00;91.20;;;;;;5034971;28;20447;-89
2021/05/08 10:30:49;;;;;;;1.63;1.53;;;17.70;74.40;;;;;;5035969;28;20444;-91
2021/05/08 10:33:20;;;;;;;2.10;1.30;;;17.50;85.70;;;;;;5035883;28;20491;-89
2021/05/08 10:35:48;;;;;;;2.10;1.50;;;17.60;65.60;;;;;;5036015;28;20455;-91
2021/05/08 10:38:20;;;;;;;2.10;1.67;;;17.60;66.20;;;;;;5036927;28;20455;-92
2021/05/08 10:40:56;;;;;;;1.63;1.10;;;17.60;64.10;;;;;;5036092;28;20448;-89
2021/05/08 10:43:51;;;;;;;2.50;1.77;;;16.50;65.60;;;;;;5034282;28;20479;-90
2021/05/08 10:46:19;;;;;;;1.30;1.20;;;16.80;62.50;;;;;;5001063;28;20550;-90
2021/05/08 10:49:19;;;;;;;1.50;1.40;;;17.60;62.40;;;;;;5035464;28;20439;-91
2021/05/08 10:51:55;;;;;;;1.30;1.20;;;18.40;60.80;;;;;;4974446;28;20453;-92
2021/05/08 10:54:54;;;;;;;1.70;1.60;;;18.00;63.00;;;;;;4973369;28;20493;-90
2021/05/08 10:57:23;;;;;;;1.60;1.50;;;18.00;59.40;;;;;;5018487;28;20448;-91
2021/05/08 11:00:26;;;;;;;1.40;1.30;;;18.00;59.90;;;;;;5035093;28;20450;-90
2021/05/08 11:03:08;;;;;;;1.60;1.50;;;17.90;61.60;;;;;;5035693;28;20439;-90
2021/05/08 11:05:35;;;;;;;1.60;1.50;;;17.90;60.80;;;;;;5036152;28;20475;-89
2021/05/08 11:08:42;;;;;;;1.10;1.00;;;18.30;83.90;;;;;;5035201;28;20957;-90
2021/05/08 11:11:11;;;;;;;2.57;1.50;;;18.20;60.10;;;;;;5035562;28;20938;-91
2021/05/08 11:13:59;;;;;;;1.90;1.40;;;17.10;89.00;;;;;;5034696;28;20919;-92
2021/05/08 11:16:26;;;;;;;1.20;1.10;;;17.30;87.60;;;;;;5035980;28;20454;-88
2021/05/08 11:18:55;;;;;;;2.60;1.70;;;17.00;63.30;;;;;;5035172;28;20455;-90
2021/05/08 11:22:06;;;;;;;1.47;1.00;;;17.00;63.40;;;;;;5034979;28;20510;-90
2021/05/08 11:24:34;;;;;;;1.43;1.17;;;17.00;65.00;;;;;;5032660;28;20455;-88
2021/05/08 11:27:00;;;;;;;1.87;1.53;;;16.10;87.70;;;;;;5033687;28;20455;-87
2021/05/08 11:29:29;;;;;;;2.50;1.60;;;15.80;90.40;;;;;;5036007;28;20451;-88
2021/05/08 11:31:57;;;;;;;2.57;1.83;;;16.30;89.20;;;;;;5034652;28;20452;-87
2021/05/08 11:34:26;;;;;;;2.90;1.67;;;16.50;92.10;;;;;;5034670;28;20491;-89
2021/05/08 11:36:55;;;;;;;2.60;1.53;;;16.70;68.80;;;;;;5034896;28;20451;-86
2021/05/08 11:39:24;;;;;;;2.00;1.30;;;16.10;68.00;;;;;;5034902;28;20523;-87
2021/05/08 11:41:52;;;;;;;1.70;1.40;;;16.50;71.80;;;;;;5034383;28;20448;-88
2021/05/08 11:44:20;;;;;;;2.63;1.20;;;16.60;90.90;;;;;;5033544;28;20456;-87
2021/05/08 11:46:57;;;;;;;1.90;1.70;;;16.10;91.70;;;;;;5034094;28;20451;-90
2021/05/08 11:49:34;;;;;;;1.70;1.17;;;16.40;91.50;;;;;;5034242;28;20447;-89
2021/05/08 11:52:03;;;;;;;2.53;1.70;;;16.70;67.90;;;;;;5034254;28;20509;-88
2021/05/08 11:54:31;;;;;;;1.53;1.43;;;;;;;;;;5033825;28;20502;-89
2021/05/08 11:56:58;;;;;;;2.40;1.43;;;;;;;;;;5034323;28;20482;-89
2021/05/08 11:59:32;;;;;;;1.30;1.20;;;17.50;87.90;;;;;;5032692;28;20795;-87
2021/05/08 12:02:17;;;;;;;2.03;1.83;;;17.50;64.70;;;;;;5034084;28;20466;-90
2021/05/08 12:04:49;;;;;;;2.00;1.40;;;17.30;89.20;;;;;;5033895;28;20558;-88
2021/05/08 12:07:18;;;;;;;1.73;1.50;;;17.90;80.80;;;;;;5034261;28;20448;-87
2021/05/08 12:09:45;;;;;;;2.97;1.40;;;17.80;65.70;;;;;;5034138;28;20815;-89
2021/05/08 12:12:12;;;;;;;1.10;1.00;;;;;;;;;;5033443;28;20451;-88
2021/05/08 12:14:39;;;;;;;1.60;1.13;;;17.10;86.70;;;;;;5033092;28;20491;-87
2021/05/08 12:17:06;;;;;;;1.47;1.37;;;;;;;;;;5033384;28;20447;-89
2021/05/08 12:19:33;;;;;;;1.73;1.40;;;;;;;;;;5033438;28;20955;-87
2021/05/08 12:22:01;;;;;;;3.73;1.43;;;16.70;77.70;;;;;;5033543;28;20475;-89
2021/05/08 12:24:27;;;;;;;1.40;1.30;;;;;;;;;;5033730;28;20448;-89
2021/05/08 12:26:54;;;;;;;1.23;0.97;;;;;;;;;;5033900;28;20459;-90
2021/05/08 12:29:20;;;;;;;1.50;1.10;;;17.20;89.00;;;;;;5032677;28;20447;-89
2021/05/08 12:31:47;;;;;;;1.37;1.10;;;17.10;84.60;;;;;;5033310;28;20439;-88
2021/05/08 12:34:16;;;;;;;1.43;1.33;;;17.20;64.60;;;;;;5033147;28;20494;-88
2021/05/08 12:36:58;;;;;;;3.80;1.20;;;17.30;63.70;;;;;;5033355;28;20462;-89
2021/05/08 12:39:27;;;;;;;5.30;1.00;;;16.80;86.80;;;;;;5033198;28;20458;-88
2021/05/08 12:41:54;;;;;;;1.43;1.30;;;16.70;86.70;;;;;;5033474;28;20456;-89
2021/05/08 12:44:30;;;;;;;1.20;1.03;;;16.70;66.00;;;;;;5029632;28;21254;-88
2021/05/08 12:47:02;;;;;;;1.77;1.00;;;16.70;67.90;;;;;;5033640;28;20447;-89
2021/05/08 12:49:30;;;;;;;1.23;1.07;;;16.70;77.50;;;;;;5033272;28;21005;-89
2021/05/08 12:51:56;;;;;;;1.30;1.20;;;16.30;88.40;;;;;;5033138;28;20635;-88
2021/05/08 12:54:26;;;;;;;1.10;1.00;;;17.00;89.70;;;;;;5033228;28;20506;-88
2021/05/08 12:56:54;;;;;;;1.33;1.10;;;17.60;86.40;;;;;;5033316;28;20455;-89
2021/05/08 12:59:29;;;;;;;1.20;1.10;;;17.20;64.10;;;;;;5031741;28;20455;-90
2021/05/08 13:02:13;;;;;;;1.00;0.90;;;17.20;62.00;;;;;;5033616;28;20969;-89
2021/05/08 13:04:41;;;;;;;2.10;1.00;;;17.30;61.90;;;;;;5033567;28;20491;-88
2021/05/08 13:07:31;;;;;;;1.47;1.13;;;17.30;63.30;;;;;;5033389;28;20821;-89
2021/05/08 13:10:23;;;;;;;1.30;1.10;;;16.80;64.30;;;;;;5033359;28;20440;-89
2021/05/08 13:12:51;;;;;;;3.40;1.57;;;16.70;66.30;;;;;;5032047;28;20444;-89
2021/05/08 13:15:19;;;;;;;2.50;1.27;;;17.00;67.10;;;;;;5033290;28;20526;-91
2021/05/08 13:17:47;;;;;;;2.43;1.30;;;17.20;67.40;;;;;;5032957;28;20451;-89
2021/05/08 13:20:14;;;;;;;1.60;1.37;;;17.00;66.20;;;;;;5033039;28;20509;-90
2021/05/08 13:22:42;;;;;;;1.03;0.93;;;17.50;66.50;;;;;;5033052;28;21040;-88
2021/05/08 13:25:12;;;;;;;1.43;1.00;;;17.80;66.10;;;;;;5033031;28;20455;-90
2021/05/08 13:27:39;;;;;;;1.30;1.03;;;18.20;63.50;;;;;;5031804;28;20955;-90
2021/05/08 13:30:07;;;;;;;1.03;0.80;;;19.10;64.10;;;;;;5032793;28;20466;-90
2021/05/08 13:32:33;;;;;;;1.00;0.80;;;19.30;61.10;;;;;;5034889;28;20452;-91
2021/05/08 13:35:00;;;;;;;1.30;0.93;;;19.80;59.50;;;;;;5036827;28;20499;-90
2021/05/08 13:37:26;;;;;;;1.10;1.00;;;20.10;80.70;;;;;;5038207;28;20455;-90